METAR Data
IDs: Format: Raw Decoded Include TAF

Data at: 1247 UTC 26 Feb 2021

EDDL 261220Z 32010KT 290V350 9999 SCT036 11/02 Q1034 NOSIG